Mcmasterville, Canada
Current Conditions -  °F | °C
As of 4:00 PM on Saturday 25 Oct 2014 (Local Time) from CYHU Reporting Station
Overcast Overcast  
Wind Chill: 55°   Ceiling: 4400
Heat Index: 55°   Visibility: 9mi
Dew Point: 43°   Wind: 10mph
Humidity: 63%   Direction: 170°S
Pressure: 29.51"   Gusts: NA
Location:  45.55°N, 73.23°W
Report Text: CYHU 252000Z AUTO 17009KT 9SM SCT037 BKN044 BKN050 OVC060 13/06 A2951 RMK SLP995 DENSITY ALT 200FT
Loading
Personal Weather Stations






























Interactive Weather Map
Tropical Storm Tracking
New forecast layout! Learn more

10-Day Weather Forecast

Advertisements
Track Severe Weather on mobile